LFTH Airport Information

Runway Information
Runway 05 Length 6955 ft width 148 ft
Elevation 6 ft Threshold 722 ft Heading 51
Runway 23 Length 6955 ft Width 148 ft
Elevation 6 ft Threshold 0 ft Heading 231
Runway 14 Length 6234 ft width 164 ft
Elevation 7 ft Threshold 951 ft Heading 135
Runway 32 Length 6234 ft Width 164 ft
Elevation 6 ft Threshold 295 ft Heading 315
Airport Frequencies
Type APP Name TOULON APP Frequency 118.825 MHZ
Type ARSA Name HYERES RDR Frequency 36.255 MHZ
Type ATIS Name HYERES ATI Frequency 129.65 MHZ
Type GND Name HYERES GND Frequency 121.8 MHZ
Type TWR Name HYERES TWR Frequency 121 MHZ
Airport Navaids
Type TACAN Name Hyeres Frequency 109000 KHZ
Type NDB Name Hyeres Frequency 322 KHZ
Airport Weather Information & NOTAM
ADDS - METARS form results

(0357 UTC 15 November 2018)
Data provider http://aviationweather.gov/metar/data/
 
METAR text: LFTH 150330Z AUTO 34003KT 9000 FEW024 13/12 Q1023
Conditions at: LFTH (HYERES/LE PALYVE, FR) observed 0330 UTC 15 November 2018
Temperature: 13.0°C (55°F)
Dewpoint: 12.0°C (54°F) [RH = 94%]
Pressure (altimeter): 30.21 inches Hg (1023.0 mb)
Winds: from the NNW (340 degrees) at 3 MPH (3 knots; 1.5 m/s)
Visibility: 6 miles ( 9 km)
Ceiling: at least 12,000 feet AGL
Clouds: few clouds at 2400 feet AGL
Weather: no significant weather observed at this time

METAR text: LFTH 150300Z AUTO 35003KT 9000 NSC 12/12 Q1023 TEMPO 4000 BR BKN008
Conditions at: LFTH (HYERES/LE PALYVE, FR) observed 0300 UTC 15 November 2018
Temperature: 12.0°C (54°F)
Dewpoint: 12.0°C (54°F) [RH = 100%]
Pressure (altimeter): 30.21 inches Hg (1023.0 mb)
Winds: from the N (350 degrees) at 3 MPH (3 knots; 1.5 m/s)
Visibility: 6 miles ( 9 km)
Ceiling: at least 12,000 feet AGL
Clouds: sky clear below 12,000 feet AGL
Weather: no significant weather observed at this time

Forecast for: LFTH (HYERES/LE PALYVE, FR)
Text: TAF LFTH 150200Z 1503/1603 VRB03KT CAVOK
Forecast period: 0300 UTC 15 November 2018 to 0300 UTC 16 November 2018
Forecast type: FROM: standard forecast or significant change
Winds: variable direction winds at 3 MPH (3 knots; 1.5 m/s)
Visibility: 6 or more miles 10+ km)
Ceiling: unknown
Clouds: missing
Weather: NSW  (no significant weather)
Text: PROB30
Forecast period: 0300 to 0600 UTC 15 November 2018
Forecast type: TEMPORARY: The following changes expected for less than half the time period
Visibility: 2.49 miles (4.01 km)
Ceiling: 800 feet AGL
Clouds: broken clouds at 800 feet AGL
Weather: BR  (mist)
Text: TEMPO 1503/1506 4000 BR BKN008
Forecast period: 0900 to 1500 UTC 15 November 2018
Forecast type: TEMPORARY: The following changes expected for less than half the time period
Winds: from the ENE (60 degrees) at 10 MPH (9 knots; 4.6 m/s)
Visibility: missing
Ceiling: unknown
Clouds: missing
Weather: no significant weather forecast for this period